Kempner, TX

5:48 PM CDT on July 24, 2016 (GMT -0500)
Indian Valley | | Change Station

Elev 1119 ft 31.07 °N, 97.95 °W | Updated 4 seconds ago

Partly Cloudy
Partly Cloudy
103.5 °F
Feels Like 107 °F
N
2.0
Wind Variable Wind from SE
Gusts 7.4 mph

Today
High -- | Low -- °F
--% Chance of Precip.
Yesterday
High -- | Low -- °F
Precip. -- in
Pressure 29.85 in
Visibility 10.0 miles
Clouds Few 7500 ft
Heat Index 107 °F
Dew Point 64 °F
Humidity 28%
Rainfall 0.00 in
Snow Depth Not available.
6:44 AM 8:32 PM
Waning Gibbous, 72% visible
METAR KGRK 242158Z AUTO VRB05KT 10SM FEW075 36/18 A2989 RMK AO2 SLP108 T03620175
Pressure 29.85 in
Visibility 10.0 miles
Clouds Few 7500 ft
Heat Index 107 °F
Dew Point 64 °F
Humidity 28%
Rainfall 0.00 in
Snow Depth Not available.
6:44 AM 8:32 PM
Waning Gibbous, 72% visible
METAR KGRK 242158Z AUTO VRB05KT 10SM FEW075 36/18 A2989 RMK AO2 SLP108 T03620175

10-Day Weather Forecast

Almanac

Astronomy

Jul. 24, 2016 Rise Set
Actual Time
Civil Twilight
Nautical Twilight
Astronomical Twilight
Moon
Length of Visible Light
Length of Day
Tomorrow will be .
, % of the Moon is Illuminated

Today's Extremes

State Highs State Lows

Community

WunderPhotos

Upload Photos

1,927,207 photos uploaded!

WunderBlog® & News

Nearby

Air Quality

  Air Quality AQ Index Pollutant
Not available.

Snow Depth

Station Depth Elevation

Earthquake Activity

City Distance Mag. Time & Date
Minimum magnitude displayed is 2.5.

Coastal Water Temperatures

Place Temperature

Stations

Nearby Weather Stations

Station Location Temp. Windchill Dew Point Humidity Wind Precip. Elev Updated Type
                   

Watches & Warnings

There are currently no watches in effect.